createdAt,value
2022-12-06T00:01:35.553Z,7.91
2022-12-06T00:04:07.282Z,10.63
2022-12-06T00:06:48.231Z,11.54
2022-12-06T00:09:22.777Z,10.24
2022-12-06T00:11:51.433Z,9.12
2022-12-06T00:14:20.482Z,8.36
2022-12-06T00:16:48.696Z,7.82
2022-12-06T00:19:19.556Z,7.39
2022-12-06T00:21:48.075Z,7.88
2022-12-06T00:24:18.992Z,10.59
2022-12-06T00:26:48.798Z,11.51
2022-12-06T00:29:19.523Z,10.29
2022-12-06T00:31:48.525Z,9.19
2022-12-06T00:34:17.115Z,8.41
2022-12-06T00:36:45.402Z,7.86
2022-12-06T00:39:16.215Z,7.43
2022-12-06T00:41:45.049Z,7.87
2022-12-06T00:44:13.821Z,10.72
2022-12-06T00:46:42.120Z,11.48
2022-12-06T00:49:10.312Z,10.25
2022-12-06T00:51:39.056Z,9.15
2022-12-06T00:54:08.929Z,8.36
2022-12-06T00:56:37.517Z,7.78
2022-12-06T00:59:06.822Z,7.30
2022-12-06T01:01:36.660Z,7.50
2022-12-06T01:04:07.127Z,10.14
2022-12-06T01:06:37.179Z,11.34
2022-12-06T01:09:09.265Z,10.14
2022-12-06T01:11:37.897Z,8.97
2022-12-06T01:14:06.603Z,8.16
2022-12-06T01:16:35.271Z,7.58
2022-12-06T01:19:05.890Z,7.11
2022-12-06T01:21:34.717Z,7.38
2022-12-06T01:24:02.864Z,10.22
2022-12-06T01:26:33.435Z,11.31
2022-12-06T01:29:02.136Z,10.07
2022-12-06T01:31:37.083Z,8.93
2022-12-06T01:34:15.720Z,8.10
2022-12-06T01:36:44.539Z,7.51
2022-12-06T01:39:12.894Z,7.06
2022-12-06T01:41:41.507Z,6.68
2022-12-06T01:44:40.578Z,7.24
2022-12-06T01:47:30.658Z,10.68
2022-12-06T01:50:10.204Z,10.57
2022-12-06T01:52:45.380Z,9.18
2022-12-06T01:55:15.342Z,8.19
2022-12-06T01:57:43.827Z,7.53
2022-12-06T02:00:12.242Z,7.05
2022-12-06T02:02:40.886Z,6.65
2022-12-06T02:05:09.954Z,7.06
2022-12-06T02:07:38.741Z,9.94
2022-12-06T02:10:07.905Z,11.01
2022-12-06T02:12:35.988Z,9.77
2022-12-06T02:15:04.300Z,8.62
2022-12-06T02:17:48.396Z,7.82
2022-12-06T02:20:39.310Z,7.20
2022-12-06T02:23:22.463Z,6.71
2022-12-06T02:26:16.389Z,7.31
2022-12-06T02:29:30.029Z,10.54
2022-12-06T02:32:12.458Z,10.23
2022-12-06T02:34:50.214Z,8.86
2022-12-06T02:37:24.789Z,7.93
2022-12-06T02:39:59.696Z,7.29
2022-12-06T02:42:40.964Z,6.80
2022-12-06T02:45:22.232Z,7.09
2022-12-06T02:47:54.744Z,10.18
2022-12-06T02:50:45.039Z,10.89
2022-12-06T02:53:18.737Z,9.40
2022-12-06T02:55:48.128Z,8.29
2022-12-06T02:58:16.166Z,7.55
2022-12-06T03:00:58.218Z,7.01
2022-12-06T03:03:32.318Z,6.54
2022-12-06T03:06:03.137Z,6.52
2022-12-06T03:09:11.184Z,9.07
2022-12-06T03:12:05.940Z,10.70
2022-12-06T03:15:03.306Z,9.22
2022-12-06T03:18:00.979Z,7.99
2022-12-06T03:20:43.024Z,7.21
2022-12-06T03:23:17.204Z,6.71
2022-12-06T03:25:47.714Z,6.30
2022-12-06T03:28:18.056Z,6.88
2022-12-06T03:30:51.213Z,9.76
2022-12-06T03:33:23.206Z,10.60
2022-12-06T03:35:54.956Z,9.34
2022-12-06T03:38:38.244Z,8.22
2022-12-06T03:41:07.985Z,7.43
2022-12-06T03:43:36.178Z,6.92
2022-12-06T03:46:17.976Z,6.52
2022-12-06T03:48:51.654Z,7.18
2022-12-06T03:51:28.604Z,10.09
2022-12-06T03:54:03.486Z,10.59
2022-12-06T03:56:36.992Z,9.26
2022-12-06T03:59:06.886Z,8.18
2022-12-06T04:01:35.626Z,7.48
2022-12-06T04:04:04.368Z,6.97
2022-12-06T04:06:32.788Z,6.57
2022-12-06T04:09:19.545Z,6.80
2022-12-06T04:11:47.618Z,9.74
2022-12-06T04:14:15.684Z,10.55
2022-12-06T04:17:02.362Z,9.36
2022-12-06T04:19:30.506Z,8.17
2022-12-06T04:22:17.159Z,7.46
2022-12-06T04:24:45.178Z,6.88
2022-12-06T04:27:48.634Z,6.48
2022-12-06T04:30:35.620Z,7.32
2022-12-06T04:33:22.484Z,10.36
2022-12-06T04:36:09.364Z,10.22
2022-12-06T04:38:42.052Z,8.79
2022-12-06T04:41:11.279Z,7.83
2022-12-06T04:43:42.227Z,7.19
2022-12-06T04:46:13.288Z,6.70
2022-12-06T04:48:42.350Z,6.32
2022-12-06T04:51:13.643Z,7.64
2022-12-06T04:53:41.945Z,10.32
2022-12-06T04:56:10.044Z,9.99
2022-12-06T04:58:38.081Z,8.65
2022-12-06T05:01:06.148Z,7.66
2022-12-06T05:03:35.074Z,7.00
2022-12-06T05:06:05.699Z,6.51
2022-12-06T05:08:33.755Z,6.77
2022-12-06T05:11:01.807Z,9.48
2022-12-06T05:13:29.844Z,10.63
2022-12-06T05:16:01.609Z,9.45
2022-12-06T05:18:30.744Z,8.24
2022-12-06T05:21:07.297Z,7.39
2022-12-06T05:23:36.208Z,6.77
2022-12-06T05:26:10.948Z,6.31
2022-12-06T05:28:39.382Z,6.71
2022-12-06T05:31:07.781Z,9.44
2022-12-06T05:33:36.502Z,10.34
2022-12-06T05:36:10.003Z,9.09
2022-12-06T05:38:38.373Z,7.91
2022-12-06T05:41:07.492Z,7.14
2022-12-06T05:43:35.569Z,6.59
2022-12-06T05:46:04.288Z,6.17
2022-12-06T05:48:32.569Z,6.66
2022-12-06T05:51:01.002Z,9.59
2022-12-06T05:53:29.319Z,10.63
2022-12-06T05:56:04.508Z,9.37
2022-12-06T05:58:32.659Z,8.14
2022-12-06T06:01:00.730Z,7.35
2022-12-06T06:03:28.884Z,6.79
2022-12-06T06:06:00.249Z,6.35
2022-12-06T06:08:29.623Z,6.62
2022-12-06T06:10:58.567Z,9.37
2022-12-06T06:13:26.650Z,10.61
2022-12-06T06:15:55.160Z,9.40
2022-12-06T06:18:23.259Z,8.21
2022-12-06T06:20:58.830Z,7.40
2022-12-06T06:23:28.342Z,6.80
2022-12-06T06:25:56.699Z,6.33
2022-12-06T06:28:25.115Z,6.04
2022-12-06T06:30:53.114Z,7.99
2022-12-06T06:33:21.417Z,10.28
2022-12-06T06:35:49.424Z,9.51
2022-12-06T06:38:17.458Z,8.25
2022-12-06T06:40:45.485Z,7.35
2022-12-06T06:43:20.812Z,6.72
2022-12-06T06:45:51.855Z,6.23
2022-12-06T06:48:20.282Z,6.80
2022-12-06T06:50:52.621Z,9.77
2022-12-06T06:53:25.218Z,10.56
2022-12-06T06:55:54.175Z,9.22
2022-12-06T06:58:22.997Z,8.06
2022-12-06T07:00:55.984Z,7.28
2022-12-06T07:03:25.111Z,6.73
2022-12-06T07:05:57.008Z,6.94
2022-12-06T07:08:25.460Z,9.81
2022-12-06T07:10:54.450Z,10.83
2022-12-06T07:13:24.673Z,9.65
2022-12-06T07:15:53.484Z,8.50
2022-12-06T07:18:22.208Z,7.72
2022-12-06T07:21:03.724Z,7.16
2022-12-06T07:23:36.138Z,6.70
2022-12-06T07:26:06.409Z,7.56
2022-12-06T07:28:39.842Z,10.54
2022-12-06T07:31:20.943Z,10.96
2022-12-06T07:33:52.657Z,9.55
2022-12-06T07:36:22.861Z,8.50
2022-12-06T07:38:53.148Z,7.80
2022-12-06T07:41:41.870Z,7.31
2022-12-06T07:44:38.913Z,8.05
2022-12-06T07:47:07.009Z,11.22
2022-12-06T07:49:35.041Z,11.18
2022-12-06T07:52:03.110Z,9.91
2022-12-06T07:54:31.155Z,8.91
2022-12-06T07:56:59.227Z,8.24
2022-12-06T07:59:27.428Z,7.74
2022-12-06T08:01:55.622Z,8.02
2022-12-06T08:04:24.730Z,10.79
2022-12-06T08:06:52.893Z,11.95
2022-12-06T08:09:21.064Z,10.75
2022-12-06T08:11:49.138Z,9.60
2022-12-06T08:14:17.177Z,8.80
2022-12-06T08:16:45.207Z,8.23
2022-12-06T08:19:13.258Z,8.47
2022-12-06T08:21:41.307Z,11.11
2022-12-06T08:24:09.881Z,12.12
2022-12-06T08:26:38.282Z,10.93
2022-12-06T08:29:06.328Z,9.81
2022-12-06T08:31:34.995Z,9.03
2022-12-06T08:34:04.018Z,8.46
2022-12-06T08:36:32.180Z,8.70
2022-12-06T08:39:00.952Z,11.28
2022-12-06T08:41:47.608Z,12.26
2022-12-06T08:44:19.081Z,10.92
2022-12-06T08:46:48.040Z,9.83
2022-12-06T08:49:17.250Z,9.08
2022-12-06T08:51:47.219Z,8.52
2022-12-06T08:54:18.561Z,8.86
2022-12-06T08:56:47.119Z,11.65
2022-12-06T08:59:15.332Z,12.45
2022-12-06T09:01:44.357Z,11.20
2022-12-06T09:04:13.082Z,10.07
2022-12-06T09:06:43.209Z,9.28
2022-12-06T09:09:13.647Z,8.70
2022-12-06T09:11:42.453Z,9.14
2022-12-06T09:14:21.150Z,11.89
2022-12-06T09:16:51.792Z,12.55
2022-12-06T09:19:20.345Z,11.24
2022-12-06T09:21:48.560Z,10.14
2022-12-06T09:24:18.384Z,9.39
2022-12-06T09:26:46.949Z,9.51
2022-12-06T09:29:16.061Z,12.09
2022-12-06T09:31:44.192Z,12.85
2022-12-06T09:34:12.950Z,11.59
2022-12-06T09:36:52.171Z,10.48
2022-12-06T09:39:30.865Z,9.66
2022-12-06T09:42:20.629Z,9.12
2022-12-06T09:45:20.235Z,10.95
2022-12-06T09:48:03.443Z,12.89
2022-12-06T09:51:16.493Z,11.66
2022-12-06T09:53:56.172Z,10.27
2022-12-06T09:56:51.370Z,9.52
2022-12-06T09:59:31.327Z,10.27
2022-12-06T10:02:27.117Z,13.06
2022-12-06T10:05:04.228Z,12.62
2022-12-06T10:07:54.597Z,11.26
2022-12-06T10:11:08.510Z,10.22
2022-12-06T10:13:47.387Z,9.46
2022-12-06T10:16:15.399Z,10.74
2022-12-06T10:18:53.075Z,13.20
2022-12-06T10:21:32.994Z,12.86
2022-12-06T10:24:27.700Z,11.46
2022-12-06T10:27:11.964Z,10.39
2022-12-06T10:29:46.030Z,9.76
2022-12-06T10:32:21.603Z,11.22
2022-12-06T10:34:56.117Z,13.46
2022-12-06T10:37:48.837Z,12.71
2022-12-06T10:40:30.979Z,11.29
2022-12-06T10:43:09.413Z,10.38
2022-12-06T10:46:20.376Z,9.80
2022-12-06T10:49:01.447Z,12.07
2022-12-06T10:51:47.125Z,13.77
2022-12-06T10:54:29.797Z,12.50
2022-12-06T10:57:02.325Z,11.17
2022-12-06T10:59:44.303Z,10.27
2022-12-06T11:02:41.812Z,10.62
2022-12-06T11:05:44.867Z,13.50
2022-12-06T11:08:28.744Z,13.14
2022-12-06T11:10:59.533Z,11.62
2022-12-06T11:13:52.334Z,10.60
2022-12-06T11:17:17.923Z,9.90
2022-12-06T11:19:56.919Z,12.58
2022-12-06T11:22:53.572Z,13.50
2022-12-06T11:25:31.906Z,11.99
2022-12-06T11:28:32.094Z,10.82
2022-12-06T11:31:00.371Z,9.83
2022-12-06T11:33:34.573Z,10.10
2022-12-06T11:36:06.272Z,12.74
2022-12-06T11:38:37.314Z,13.20
2022-12-06T11:41:10.915Z,11.78
2022-12-06T11:43:39.609Z,10.57
2022-12-06T11:46:13.208Z,9.77
2022-12-06T11:48:42.602Z,10.46
2022-12-06T11:51:37.021Z,13.04
2022-12-06T11:54:47.568Z,12.94
2022-12-06T11:57:23.986Z,11.19
2022-12-06T12:00:21.489Z,10.15
2022-12-06T12:02:51.876Z,9.78
2022-12-06T12:05:26.557Z,12.09
2022-12-06T12:07:59.253Z,13.22
2022-12-06T12:10:38.733Z,11.92
2022-12-06T12:13:31.689Z,10.60
2022-12-06T12:16:18.072Z,9.61
2022-12-06T12:19:28.302Z,9.89
2022-12-06T12:22:00.217Z,12.86
2022-12-06T12:27:39.845Z,10.81
2022-12-06T12:30:24.796Z,9.84
2022-12-06T12:33:17.075Z,9.09
2022-12-06T12:35:46.817Z,10.57
2022-12-06T12:38:20.695Z,12.84
2022-12-06T12:40:53.466Z,12.45
2022-12-06T12:43:25.154Z,11.01
2022-12-06T12:46:07.765Z,9.93
2022-12-06T12:48:37.781Z,9.09
2022-12-06T12:51:27.258Z,9.12
2022-12-06T12:54:23.548Z,11.94
2022-12-06T12:56:52.165Z,12.59
2022-12-06T12:59:23.602Z,11.09
2022-12-06T13:01:51.912Z,9.84
2022-12-06T13:04:41.687Z,9.08
2022-12-06T13:07:12.669Z,11.10
2022-12-06T13:10:07.725Z,12.80
2022-12-06T13:12:43.080Z,11.38
2022-12-06T13:15:24.130Z,10.02
2022-12-06T13:18:10.439Z,9.01
2022-12-06T13:20:38.896Z,8.21
2022-12-06T13:23:15.448Z,8.90
2022-12-06T13:26:05.857Z,11.75
2022-12-06T13:28:40.201Z,12.41
2022-12-06T13:31:18.448Z,10.95
2022-12-06T13:34:00.413Z,9.71
2022-12-06T13:36:32.883Z,8.87
2022-12-06T13:39:32.861Z,9.92
2022-12-06T13:42:18.325Z,12.89
2022-12-06T13:45:01.914Z,12.94
2022-12-06T13:47:29.924Z,11.13
2022-12-06T13:50:17.432Z,9.85
2022-12-06T13:52:45.437Z,8.85
2022-12-06T13:55:25.868Z,8.87
2022-12-06T13:58:00.126Z,11.45
2022-12-06T14:00:28.190Z,12.71
2022-12-06T14:03:03.913Z,11.50
2022-12-06T14:09:02.532Z,8.88
2022-12-06T14:11:38.129Z,9.76
2022-12-06T14:14:16.481Z,12.42
2022-12-06T14:16:51.630Z,12.24
2022-12-06T14:19:28.659Z,10.83
2022-12-06T14:21:59.959Z,9.78
2022-12-06T14:24:35.663Z,9.09
2022-12-06T14:27:25.505Z,9.89
2022-12-06T14:30:06.463Z,12.68
2022-12-06T14:32:40.517Z,12.32
2022-12-06T14:35:15.029Z,10.94
2022-12-06T14:38:04.160Z,9.90
2022-12-06T14:40:58.633Z,9.04
2022-12-06T14:43:31.170Z,8.86
2022-12-06T14:46:02.110Z,11.32
2022-12-06T14:48:52.189Z,12.69
2022-12-06T14:51:23.874Z,11.29
2022-12-06T14:53:52.648Z,10.04
2022-12-06T14:56:22.817Z,9.15
2022-12-06T14:58:51.601Z,9.15
2022-12-06T15:01:19.616Z,11.69
2022-12-06T15:04:04.595Z,12.84
2022-12-06T15:06:34.905Z,11.42
2022-12-06T15:09:02.964Z,10.16
2022-12-06T15:11:56.142Z,9.25
2022-12-06T15:14:30.005Z,8.43
2022-12-06T15:17:10.367Z,9.60
2022-12-06T15:19:46.240Z,12.29
2022-12-06T15:22:24.917Z,12.33
2022-12-06T15:24:57.917Z,10.62
2022-12-06T15:27:28.119Z,9.32
2022-12-06T15:29:56.178Z,8.37
2022-12-06T15:32:26.614Z,8.27
2022-12-06T15:34:54.659Z,10.65
2022-12-06T15:37:39.917Z,12.05
2022-12-06T15:40:14.570Z,10.58
2022-12-06T15:42:42.661Z,9.17
2022-12-06T15:45:15.378Z,8.18
2022-12-06T15:47:43.434Z,8.31
2022-12-06T15:50:15.397Z,10.87
2022-12-06T15:52:43.448Z,12.24
2022-12-06T15:55:18.430Z,10.88
2022-12-06T15:57:46.559Z,9.37
2022-12-06T16:00:14.838Z,8.34
2022-12-06T16:02:43.029Z,8.24
2022-12-06T16:05:16.382Z,10.70
2022-12-06T16:07:44.464Z,12.30
2022-12-06T16:10:13.804Z,11.16
2022-12-06T16:13:02.052Z,9.74
2022-12-06T16:15:30.154Z,8.65
2022-12-06T16:17:58.272Z,8.52
2022-12-06T16:20:32.274Z,10.95
2022-12-06T16:23:21.571Z,12.37
2022-12-06T16:25:49.684Z,10.91
2022-12-06T16:28:17.756Z,9.56
2022-12-06T16:30:45.830Z,8.54
2022-12-06T16:33:19.425Z,8.88
2022-12-06T16:35:47.587Z,11.50
2022-12-06T16:38:17.329Z,12.68
2022-12-06T16:40:46.916Z,11.45
2022-12-06T16:43:14.991Z,9.86
2022-12-06T16:45:45.083Z,8.77
2022-12-06T16:48:19.793Z,8.86
2022-12-06T16:50:48.225Z,11.44
2022-12-06T16:53:16.767Z,12.51
2022-12-06T16:55:45.032Z,11.26
2022-12-06T16:58:13.935Z,9.85
2022-12-06T17:00:42.246Z,8.78
2022-12-06T17:03:11.463Z,7.98
2022-12-06T17:05:39.592Z,8.55
2022-12-06T17:08:07.739Z,11.12
2022-12-06T17:10:35.926Z,12.57
2022-12-06T17:13:04.604Z,11.42
2022-12-06T17:15:32.747Z,9.97
2022-12-06T17:18:00.879Z,8.92
2022-12-06T17:20:28.927Z,8.99
2022-12-06T17:22:57.820Z,11.47
2022-12-06T17:25:25.839Z,12.74
2022-12-06T17:27:53.864Z,11.52
2022-12-06T17:30:23.475Z,10.12
2022-12-06T17:32:51.612Z,9.08
2022-12-06T17:35:19.761Z,9.31
2022-12-06T17:37:47.759Z,11.84
2022-12-06T17:40:15.895Z,12.48
2022-12-06T17:43:02.447Z,11.01
2022-12-06T17:45:30.620Z,9.53
2022-12-06T17:47:58.792Z,8.59
2022-12-06T17:50:27.002Z,8.53
2022-12-06T17:52:55.114Z,10.96
2022-12-06T17:55:23.199Z,12.37
2022-12-06T17:57:51.317Z,11.19
2022-12-06T18:00:19.694Z,9.82
2022-12-06T18:02:48.826Z,8.81
2022-12-06T18:05:17.564Z,8.76
2022-12-06T18:07:45.683Z,11.20
2022-12-06T18:10:13.854Z,12.38
2022-12-06T18:12:41.947Z,11.02
2022-12-06T18:15:30.268Z,9.56
2022-12-06T18:17:58.322Z,8.37
2022-12-06T18:20:26.322Z,8.64
2022-12-06T18:22:54.310Z,11.05
2022-12-06T18:25:22.421Z,12.22
2022-12-06T18:27:50.460Z,10.97
2022-12-06T18:30:18.625Z,9.52
2022-12-06T18:32:46.663Z,8.46
2022-12-06T18:35:14.829Z,8.55
2022-12-06T18:37:42.882Z,10.99
2022-12-06T18:40:11.112Z,12.36
2022-12-06T18:42:39.281Z,11.25
2022-12-06T18:45:07.720Z,9.80
2022-12-06T18:47:35.877Z,8.77
2022-12-06T18:50:04.163Z,8.61
2022-12-06T18:52:32.294Z,10.84
2022-12-06T18:55:00.537Z,12.32
2022-12-06T18:57:32.011Z,11.18
2022-12-06T19:00:00.751Z,9.67
2022-12-06T19:02:29.212Z,8.63
2022-12-06T19:04:57.353Z,8.52
2022-12-06T19:07:25.345Z,10.82
2022-12-06T19:09:53.382Z,12.19
2022-12-06T19:12:21.493Z,10.93
2022-12-06T19:14:49.592Z,9.46
2022-12-06T19:17:17.607Z,8.42
2022-12-06T19:19:45.667Z,9.75
2022-12-06T19:22:13.765Z,11.76
2022-12-06T19:24:41.768Z,11.05
2022-12-06T19:27:10.098Z,9.62
2022-12-06T19:29:38.219Z,8.47
2022-12-06T19:32:06.357Z,7.71
2022-12-06T19:34:34.446Z,9.00
2022-12-06T19:37:02.623Z,11.37
2022-12-06T19:39:30.673Z,12.27
2022-12-06T19:42:17.377Z,10.72
2022-12-06T19:44:45.434Z,9.18
2022-12-06T19:47:14.041Z,8.20
2022-12-06T19:49:42.075Z,7.47
2022-12-06T19:52:10.258Z,8.20
2022-12-06T19:54:38.654Z,10.72
2022-12-06T19:57:06.685Z,11.83
2022-12-06T19:59:36.252Z,10.44
2022-12-06T20:02:04.894Z,9.00
2022-12-06T20:04:38.069Z,8.31
2022-12-06T20:07:06.914Z,10.22
2022-12-06T20:09:35.263Z,11.87
2022-12-06T20:12:05.530Z,10.83
2022-12-06T20:14:44.231Z,9.31
2022-12-06T20:17:22.035Z,8.44
2022-12-06T20:19:50.295Z,10.43
2022-12-06T20:22:19.988Z,11.54
2022-12-06T20:24:48.495Z,10.35
2022-12-06T20:27:16.828Z,8.99
2022-12-06T20:29:44.874Z,8.23
2022-12-06T20:32:12.940Z,10.03
2022-12-06T20:34:40.996Z,11.59
2022-12-06T20:37:09.090Z,10.42
2022-12-06T20:39:37.097Z,9.12
2022-12-06T20:42:07.041Z,8.36
2022-12-06T20:44:36.132Z,10.13
2022-12-06T20:47:04.377Z,11.67
2022-12-06T20:49:32.797Z,10.65
2022-12-06T20:52:03.035Z,9.23
2022-12-06T20:54:31.208Z,8.20
2022-12-06T20:56:59.362Z,9.25
2022-12-06T20:59:29.609Z,11.52
2022-12-06T21:01:57.936Z,11.27
2022-12-06T21:04:27.055Z,9.72
2022-12-06T21:06:56.166Z,8.49
2022-12-06T21:09:24.727Z,8.40
2022-12-06T21:11:52.786Z,10.81
2022-12-06T21:14:20.901Z,11.76
2022-12-06T21:16:49.033Z,10.39
2022-12-06T21:19:19.792Z,9.00
2022-12-06T21:21:51.501Z,7.96
2022-12-06T21:24:21.676Z,7.94
2022-12-06T21:26:49.837Z,10.36
2022-12-06T21:29:30.176Z,12.03
2022-12-06T21:32:02.486Z,10.94
2022-12-06T21:34:30.572Z,9.39
2022-12-06T21:36:58.783Z,8.31
2022-12-06T21:39:26.893Z,7.55
2022-12-06T21:41:54.977Z,8.53
2022-12-06T21:44:24.007Z,11.17
2022-12-06T21:46:53.481Z,11.86
2022-12-06T21:49:21.693Z,10.39
2022-12-06T21:51:51.069Z,9.00
2022-12-06T21:54:20.817Z,8.00
2022-12-06T21:56:48.804Z,8.88
2022-12-06T21:59:16.862Z,11.15
2022-12-06T22:01:44.928Z,11.62
2022-12-06T22:04:12.943Z,9.97
2022-12-06T22:06:40.977Z,8.56
2022-12-06T22:09:10.109Z,8.93
2022-12-06T22:11:38.401Z,11.10
2022-12-06T22:14:06.691Z,11.11
2022-12-06T22:16:34.936Z,9.71
2022-12-06T22:19:03.931Z,8.38
2022-12-06T22:21:33.061Z,8.59
2022-12-06T22:24:02.011Z,10.55
2022-12-06T22:26:31.399Z,10.29
2022-12-06T22:29:00.372Z,8.90
2022-12-06T22:31:33.659Z,7.76
2022-12-06T22:34:02.659Z,8.34
2022-12-06T22:36:32.228Z,10.69
2022-12-06T22:39:02.614Z,10.96
2022-12-06T22:41:30.802Z,9.41
2022-12-06T22:44:01.777Z,8.09
2022-12-06T22:46:31.404Z,7.27
2022-12-06T22:49:01.058Z,8.59
2022-12-06T22:51:37.000Z,10.80
2022-12-06T22:54:09.332Z,10.48
2022-12-06T22:56:39.895Z,8.88
2022-12-06T22:59:09.437Z,8.00
2022-12-06T23:01:37.610Z,9.83
2022-12-06T23:04:07.046Z,11.30
2022-12-06T23:06:36.178Z,10.30
2022-12-06T23:09:09.093Z,8.82
2022-12-06T23:11:37.405Z,7.88
2022-12-06T23:14:05.554Z,9.43
2022-12-06T23:16:34.569Z,11.37
2022-12-06T23:19:04.238Z,10.90
2022-12-06T23:21:34.923Z,9.33
2022-12-06T23:24:07.904Z,8.12
2022-12-06T23:26:41.848Z,7.69
2022-12-06T23:29:10.447Z,9.83
2022-12-06T23:31:41.307Z,11.40
2022-12-06T23:34:18.818Z,10.39
2022-12-06T23:36:46.957Z,8.72
2022-12-06T23:39:15.532Z,7.63
2022-12-06T23:41:43.638Z,7.53
2022-12-06T23:44:13.084Z,9.71
2022-12-06T23:46:43.010Z,10.73
2022-12-06T23:49:17.506Z,9.32
2022-12-06T23:51:46.504Z,7.77
2022-12-06T23:54:15.193Z,7.51
2022-12-06T23:56:44.268Z,9.41
2022-12-06T23:59:14.860Z,10.72
